Route Details

Aircraft Information
Group: North America Fleet
Types: B738, B752, B762, B763
Route Data
Distance: 2102nm
Duration: 4h 54m
Origin METAR: KSFO 171056Z 29007KT 10SM FEW180 15/12 A2983 RMK AO2 SLP100 T01500117
Dest. METAR: KLAL 170515Z AUTO 00000KT 10SM CLR 24/23 A2993 RMK AO2 T02370234
Freight Data
(for Aug 18, 2022)
Load Factor:
79%
Manifested Cargo: 47,717lbs
Financial History
Total Freight: 61,101lbs
Average Load: 0lbs/flt
Fuel Used: 38,046lbs
Avg. Fuel Used: 0lbs/flt
Fuel Expense: $23,589
Avg. Fuel Expense: $0
Avg. Fuel Cost: $0/lbs
Total Gross Income: $165,584
Pilot Pay: $239
Total Expenses: $20,172
Total Revenue: $120,544
Average Revenue: $0

Capitol Logistics 480




KSFO
San Francisco International Airport
San Francisco, California
KLAL
Lakeland Linder Regional Airport
Lakeland, Florida

Activity Log

Date Flight Route Aircraft Duration
06/25/2022 CPX7370 NIITE3 SYRAH Q128 JSICA DCT MLF DCT KD51S DCT KK45A DCT KM33G DCT LIT DCT MEI DCT DEFUN MAATY3 B752 5h 20m